St Lucie County International Airport
KFPR : now visible

Airfield :











YOU CAN JOIN US ON...

 
LOGIN :

Register | Disclaimer

   EN    FR    IT 

 









Legend :    VFR   Marginal VFR   IFR   Intensive IFR   Very Intensive IFR
Visi :
Ceiling :
>= 8 km
>= 3000ft
5 to 8 km
1000 to 3000 ft
1500m to 5 km
500 to 1000 ft
800 to 1500m
200 to 500 ft
< 800m
< 200 ft
Symbols :   Thunderstorms  Fog  Heavy snow  Heavy precipitations  Wind > 20 kt






- Airport Elevation : 24 ft
- IATA code : FPR


KFPR - St Lucie County International

CURRENT METAR :
  • 181253Z 30005KT 10SM CLR 26/21 A3004 RMK AO2 SLP172 T02610211

EXPIRED METARs :
  • 181153Z 27004KT 10SM CLR 23/21 A3003 RMK AO2 SLP169 T02330211 10244 20200 53016
  • 181053Z 00000KT 9SM CLR 21/19 A3001 RMK AO2 SLP162 T02110194

TAF KFPR
Valid from the 18 at 12:00 until the 19 at 12:00 UTC


181130Z 1812/1912 VRB04KT P6SM SKC
FM181500 11008KT P6SM SCT040
FM181900 12014KT P6SM FEW050
FM190000 16006KT P6SM FEW050
KZMA FIR / North America



MET'MAP, your aeronautical weather chart ! - Copyright ORBIFLY December 2007 - Disclaimer

ORBIFLY MET'MAP TEAM :

Programming & Development : Alexandra Zaïnal
Original concept : Baudouin d'Aumeries
Technical & hardware support : Manuel Goepfert
Assistance : Marc-Olivier Méhu

Contact : metmap@orbifly.com




SOURCES & CREDITS :

   NOAA       Earth
Advisory